Time;durP1;ratioP1;P1;durP2;ratioP2;P2;SDS_P1;SDS_P2;PMS_P1;PMS_P2;Temp;Humidity;BMP_temperature;BMP_pressure;BME280_temperature;BME280_humidity;BME280_pressure;Samples;Min_cycle;Max_cycle;Signal;HPM_P1;HPM_P2
2022/10/05 00:00:02;;;;;;;;;;;;;;;11.35;68.07;100570.50;4272237;33;33999;-92
2022/10/05 00:03:08;;;;;;;;;;;;;;;11.38;67.55;100573.09;4273959;33;36191;-91
2022/10/05 00:06:48;;;;;;;;;;;;;;;;;;;;;
2022/10/05 02:18:13;;;;;;;;;;;;;;;10.70;67.89;100602.56;4171355;34;35437;-92
2022/10/05 06:42:09;;;;;;;;;;;;;;;11.13;69.36;100722.88;4311952;33;32156;-91
2022/10/05 06:47:44;;;;;;;;;;;;;;;11.65;66.91;100745.44;4326639;33;33443;-93
2022/10/05 06:50:40;;;;;;;;;;;;;;;11.71;66.86;100748.00;4311399;33;34492;-91
2022/10/05 06:53:44;;;;;;;;;;;;;;;11.67;67.56;100741.06;4300857;33;34132;-94
2022/10/05 07:00:30;;;;;;;;;;;;;;;11.58;68.78;100749.75;4308064;33;35760;-91
2022/10/05 07:03:30;;;;;;;;;;;;;;;11.91;68.34;100748.00;4309761;33;34353;-91
2022/10/05 07:06:07;;;;;;;;;;;;;;;12.19;67.38;100758.38;4308120;33;33191;-92
2022/10/05 07:09:20;;;;;;;;;;;;;;;12.07;68.18;100764.47;4307942;33;34961;-93
2022/10/05 07:12:18;;;;;;;;;;;;;;;12.23;68.28;100767.91;4307885;33;34437;-92
2022/10/05 07:14:59;;;;;;;;;;;;;;;12.66;66.18;100773.84;4300829;33;34265;-95
2022/10/05 07:17:58;;;;;;;;;;;;;;;12.60;66.71;100771.25;4289100;33;34282;-90
2022/10/05 07:20:52;;;;;;;;;;;;;;;12.62;66.89;100766.91;4308982;33;34191;-92
2022/10/05 07:23:40;;;;;;;;;;;;;;;12.59;67.69;100777.34;4321900;33;34303;-93
2022/10/05 07:26:21;;;;;;;;;;;;;;;12.61;67.99;100759.94;4304474;33;34412;-92
2022/10/05 07:29:06;;;;;;;;;;;;;;;12.70;68.13;100753.84;4322023;33;32911;-92
2022/10/05 07:31:41;;;;;;;;;;;;;;;12.78;68.59;100752.06;4314843;33;35308;-91
2022/10/05 07:34:22;;;;;;;;;;;;;;;12.97;68.15;100760.62;4310322;33;33764;-94
2022/10/05 07:39:45;;;;;;;;;;;;;;;13.16;67.54;100766.59;4308531;33;34427;-90
2022/10/05 07:42:57;;;;;;;;;;;;;;;12.92;68.68;100770.22;4313485;33;33054;-90
2022/10/05 07:45:31;;;;;;;;;;;;;;;13.17;67.78;100766.59;4296433;33;32789;-91
2022/10/05 07:48:03;;;;;;;;;;;;;;;13.13;66.98;100769.22;4290429;33;33946;-90
2022/10/05 07:50:42;;;;;;;;;;;;;;;13.46;66.27;100757.75;4312181;33;32660;-90
2022/10/05 07:53:15;;;;;;;;;;;;;;;13.66;65.32;100755.81;4314664;33;33347;-90
2022/10/05 07:56:02;;;;;;;;;;;;;;;13.56;66.01;100764.59;4309075;33;35227;-94
2022/10/05 07:58:31;;;;;;;;;;;;;;;13.63;65.94;100749.78;4295158;33;34234;-91
2022/10/05 08:01:10;;;;;;;;;;;;;;;13.73;66.22;100759.25;4298485;33;34503;-93
2022/10/05 08:03:44;;;;;;;;;;;;;;;13.76;66.70;100767.03;4302640;33;32943;-92
2022/10/05 08:06:17;;;;;;;;;;;;;;;13.90;66.52;100769.53;4313895;33;33651;-91
2022/10/05 08:08:55;;;;;;;;;;;;;;;14.01;66.64;100772.00;4321616;33;33269;-90
2022/10/05 08:11:54;;;;;;;;;;;;;;;13.98;67.06;100772.06;4298543;33;33422;-91
2022/10/05 08:14:39;;;;;;;;;;;;;;;14.22;66.50;100781.38;4296672;33;34118;-93
2022/10/05 08:17:11;;;;;;;;;;;;;;;14.28;66.23;100776.09;4294879;33;35176;-92
2022/10/05 08:19:45;;;;;;;;;;;;;;;14.30;66.39;100775.19;4319226;33;33376;-89
2022/10/05 08:22:30;;;;;;;;;;;;;;;14.35;66.70;100763.81;4314348;33;33505;-92
2022/10/05 08:25:12;;;;;;;;;;;;;;;14.58;65.90;100759.22;4308249;33;33606;-91
2022/10/05 08:28:15;;;;;;;;;;;;;;;14.69;66.21;100772.13;4297872;33;35089;-91
2022/10/05 08:31:24;;;;;;;;;;;;;;;14.84;65.88;100763.25;4321678;33;36291;-90
2022/10/05 08:34:02;;;;;;;;;;;;;;;15.05;65.06;100743.78;4323555;33;32147;-91
2022/10/05 08:36:54;;;;;;;;;;;;;;;15.05;64.93;100751.63;4310349;33;34250;-92
2022/10/05 08:39:24;;;;;;;;;;;;;;;15.23;63.74;100746.13;4295988;33;33822;-92
2022/10/05 08:42:26;;;;;;;;;;;;;;;15.29;63.70;100742.53;4294893;33;33244;-93
2022/10/05 08:45:01;;;;;;;;;;;;;;;15.40;62.98;100745.00;4298059;33;33011;-91
2022/10/05 08:47:50;;;;;;;;;;;;;;;15.59;62.41;100749.03;4296539;33;34806;-90
2022/10/05 08:50:59;;;;;;;;;;;;;;;15.75;61.18;100742.69;4281010;33;35116;-91
2022/10/05 08:53:43;;;;;;;;;;;;;;;15.94;60.51;100724.03;4294125;33;34009;-91
2022/10/05 08:56:36;;;;;;;;;;;;;;;15.93;60.33;100727.53;4307270;33;32515;-90
2022/10/05 09:03:33;;;;;;;;;;;;;;;16.00;59.49;100734.41;4178509;34;35086;-91
2022/10/05 09:06:49;;;;;;;;;;;;;;;15.85;60.12;100727.69;4162873;34;35000;-90
2022/10/05 09:09:54;;;;;;;;;;;;;;;15.85;60.35;100740.78;4172797;34;33239;-91
2022/10/05 09:12:51;;;;;;;;;;;;;;;16.08;60.06;100742.94;4182433;34;34818;-91
2022/10/05 09:15:37;;;;;;;;;;;;;;;16.14;58.86;100750.69;4187053;34;36427;-93
2022/10/05 09:18:29;;;;;;;;;;;;;;;16.17;59.12;100750.62;4182601;34;34229;-90
2022/10/05 09:21:29;;;;;;;;;;;;;;;16.27;59.77;100761.78;4167310;34;33870;-92
2022/10/05 09:24:29;;;;;;;;;;;;;;;16.50;58.09;100770.94;4182443;34;36645;-91
2022/10/05 09:27:19;;;;;;;;;;;;;;;16.71;57.44;100767.03;4181649;34;34639;-92
2022/10/05 09:33:43;;;;;;;;;;;;;;;17.00;58.71;100772.50;4185049;34;35585;-92
2022/10/05 09:39:53;;;;;;;;;;;;;;;17.13;57.54;100767.88;4262142;33;36583;-91
2022/10/05 09:42:46;;;;;;;;;;;;;;;17.62;56.26;100768.47;4333249;33;32689;-90
2022/10/05 09:45:22;;;;;;;;;;;;;;;17.63;56.41;100764.91;4303886;33;33738;-91
2022/10/05 09:48:22;;;;;;;;;;;;;;;17.71;57.02;100768.22;4314195;33;34588;-90
2022/10/05 09:50:57;;;;;;;;;;;;;;;17.88;55.58;100771.31;4313072;33;34256;-89
2022/10/05 09:53:56;;;;;;;;;;;;;;;17.77;54.20;100765.44;4310761;33;34935;-92
2022/10/05 09:56:34;;;;;;;;;;;;;;;18.19;52.40;100757.34;4311184;33;33498;-90
2022/10/05 09:59:20;;;;;;;;;;;;;;;18.26;52.39;100751.00;4311475;33;33879;-94
2022/10/05 10:02:02;;;;;;;;;;;;;;;18.12;52.70;100759.28;4280758;33;34886;-92
2022/10/05 10:08:30;;;;;;;;;;;;;;;18.15;53.95;100758.34;4283444;33;33664;-93
2022/10/05 10:11:24;;;;;;;;;;;;;;;18.29;54.54;100756.19;4278748;33;34323;-90
2022/10/05 10:21:38;;;;;;;;;;;;;;;18.15;53.78;100749.59;4171311;34;33676;-92
2022/10/05 10:24:20;;;;;;;;;;;;;;;18.18;53.17;100753.00;4153304;34;34619;-91
2022/10/05 10:27:36;;;;;;;;;;;;;;;18.25;53.00;100751.94;4145713;34;35445;-90
2022/10/05 10:30:19;;;;;;;;;;;;;;;18.61;53.25;100741.25;4163175;34;35988;-90
2022/10/05 10:33:14;;;;;;;;;;;;;;;18.63;51.81;100747.34;4155269;34;32228;-91
2022/10/05 10:35:44;;;;;;;;;;;;;;;18.65;51.97;100750.78;4166792;34;33513;-90
2022/10/05 10:38:25;;;;;;;;;;;;;;;18.68;50.75;100752.47;4169665;34;33700;-91
2022/10/05 10:41:21;;;;;;;;;;;;;;;18.76;51.86;100739.97;4185197;34;33767;-91
2022/10/05 10:47:33;;;;;;;;;;;;;;;18.84;53.17;100751.09;4177622;34;34483;-90
2022/10/05 10:50:27;;;;;;;;;;;;;;;18.88;52.69;100751.87;4160972;34;784226;-91
2022/10/05 10:56:37;;;;;;;;;;;;;;;18.94;50.73;100746.44;4280407;33;33598;-91
2022/10/05 10:59:34;;;;;;;;;;;;;;;19.03;50.33;100754.03;4305451;33;35003;-94
2022/10/05 11:02:21;;;;;;;;;;;;;;;19.31;50.23;100747.91;4309744;33;33870;-90
2022/10/05 11:04:54;;;;;;;;;;;;;;;19.33;49.75;100739.06;4314198;33;34048;-89
2022/10/05 11:07:31;;;;;;;;;;;;;;;19.38;50.71;100741.53;4309522;33;33841;-90
2022/10/05 11:10:24;;;;;;;;;;;;;;;19.28;49.52;100745.34;4310112;33;34124;-91
2022/10/05 11:13:15;;;;;;;;;;;;;;;19.24;50.62;100751.66;4316155;33;34036;-91
2022/10/05 11:15:56;;;;;;;;;;;;;;;19.19;51.47;100746.53;4313627;33;33347;-91
2022/10/05 11:18:27;;;;;;;;;;;;;;;19.31;52.08;100742.66;4309299;33;34314;-91
2022/10/05 11:21:14;;;;;;;;;;;;;;;19.35;51.59;100739.88;4319604;33;32356;-91
2022/10/05 11:23:50;;;;;;;;;;;;;;;19.56;51.08;100733.03;4304223;33;35037;-93
2022/10/05 11:26:32;;;;;;;;;;;;;;;19.44;51.73;100733.44;4297075;33;32402;-90
2022/10/05 11:29:27;;;;;;;;;;;;;;;19.58;50.89;100735.59;4298467;33;32829;-91
2022/10/05 11:32:37;;;;;;;;;;;;;;;19.58;51.21;100735.59;4309012;33;33398;-90
2022/10/05 11:35:27;;;;;;;;;;;;;;;19.70;51.38;100726.47;4324481;33;34408;-93
2022/10/05 11:38:11;;;;;;;;;;;;;;;19.90;51.73;100728.41;4308800;33;33780;-90
2022/10/05 11:41:16;;;;;;;;;;;;;;;19.92;51.25;100711.63;4293156;33;32612;-91
2022/10/05 11:43:55;;;;;;;;;;;;;;;20.05;47.74;100717.31;4294683;33;35022;-91
2022/10/05 11:46:24;;;;;;;;;;;;;;;19.98;48.85;100715.81;4299696;33;33366;-91
2022/10/05 11:49:02;;;;;;;;;;;;;;;19.89;49.24;100713.53;4297799;33;33653;-92
2022/10/05 11:51:44;;;;;;;;;;;;;;;19.97;47.50;100703.56;4292024;33;32958;-91
2022/10/05 11:54:23;;;;;;;;;;;;;;;20.12;47.73;100704.78;4283750;33;34679;-90
2022/10/05 11:56:56;;;;;;;;;;;;;;;20.30;49.38;100706.75;4288868;33;34074;-94
2022/10/05 11:59:48;;;;;;;;;;;;;;;19.89;48.51;100703.00;4282258;33;34812;-91
2022/10/05 12:02:30;;;;;;;;;;;;;;;20.14;47.49;100697.69;4298649;33;33345;-90
2022/10/05 12:05:00;;;;;;;;;;;;;;;20.38;47.06;100698.56;4298724;33;33887;-92
2022/10/05 12:07:34;;;;;;;;;;;;;;;20.38;47.83;100686.22;4300205;33;34456;-91
2022/10/05 12:10:16;;;;;;;;;;;;;;;20.66;47.83;100693.12;4294769;33;33821;-89
2022/10/05 12:12:49;;;;;;;;;;;;;;;20.76;47.88;100681.28;4295037;33;32909;-90
2022/10/05 12:15:23;;;;;;;;;;;;;;;20.69;47.54;100684.22;4293534;33;34100;-93
2022/10/05 12:18:03;;;;;;;;;;;;;;;20.76;45.66;100676.00;4297223;33;32964;-92
2022/10/05 12:20:41;;;;;;;;;;;;;;;20.82;43.68;100680.19;4301484;33;33572;-91
2022/10/05 12:23:15;;;;;;;;;;;;;;;20.87;44.37;100689.59;4297246;33;33220;-92
2022/10/05 12:25:53;;;;;;;;;;;;;;;20.88;45.92;100680.78;4283709;33;32474;-91
2022/10/05 12:28:30;;;;;;;;;;;;;;;21.01;44.96;100678.50;4284134;33;33731;-91
2022/10/05 12:31:03;;;;;;;;;;;;;;;20.93;45.50;100677.13;4285531;33;32401;-91
2022/10/05 12:33:33;;;;;;;;;;;;;;;20.62;44.41;100678.34;4302283;33;33083;-94
2022/10/05 12:36:10;;;;;;;;;;;;;;;20.77;43.14;100683.00;4298675;33;35426;-91
2022/10/05 12:41:18;;;;;;;;;;;;;;;20.99;42.29;100684.78;4309490;33;34633;-90
2022/10/05 12:43:49;;;;;;;;;;;;;;;21.05;42.56;100676.63;4314077;33;32336;-93
2022/10/05 12:46:25;;;;;;;;;;;;;;;21.13;41.82;100669.25;4301761;33;33775;-92
2022/10/05 12:49:33;;;;;;;;;;;;;;;21.09;42.42;100670.28;4308225;33;33615;-91
2022/10/05 12:52:04;;;;;;;;;;;;;;;21.20;41.83;100657.50;4250435;33;33254;-91
2022/10/05 12:54:42;;;;;;;;;;;;;;;21.19;41.87;100655.81;4250691;33;33301;-92
2022/10/05 12:57:20;;;;;;;;;;;;;;;21.39;41.59;100662.91;4252055;33;33861;-93
2022/10/05 13:03:00;;;;;;;;;;;;;;;21.88;40.35;100641.41;4465296;31;804499;-91
2022/10/05 13:05:37;;;;;;;;;;;;;;;21.88;40.35;100641.41;4477865;32;33277;-90
2022/10/05 13:08:20;;;;;;;;;;;;;;;21.44;41.75;100653.00;4471704;32;33836;-90
2022/10/05 13:10:49;;;;;;;;;;;;;;;21.36;42.16;100641.00;4457451;32;33749;-91
2022/10/05 13:13:34;;;;;;;;;;;;;;;21.51;42.47;100656.25;4472191;32;34000;-89
2022/10/05 13:16:06;;;;;;;;;;;;;;;21.50;41.81;100652.75;4453971;32;31748;-91
2022/10/05 13:18:40;;;;;;;;;;;;;;;21.53;42.57;100649.12;4475521;32;34881;-91
2022/10/05 13:21:18;;;;;;;;;;;;;;;21.63;42.32;100657.50;4456548;32;32640;-92
2022/10/05 13:23:51;;;;;;;;;;;;;;;21.48;41.47;100659.00;4455655;32;32256;-92
2022/10/05 13:26:28;;;;;;;;;;;;;;;21.58;42.22;100651.56;4458243;32;31640;-90
2022/10/05 13:28:59;;;;;;;;;;;;;;;21.63;43.19;100654.88;4472949;32;34570;-90
2022/10/05 13:34:25;;;;;;;;;;;;;;;21.76;42.81;100637.53;4460152;32;32937;-90
2022/10/05 13:36:58;;;;;;;;;;;;;;;21.43;42.03;100640.75;4470362;32;33617;-90
2022/10/05 13:39:35;;;;;;;;;;;;;;;21.59;42.20;100640.91;4475211;32;33215;-89
2022/10/05 13:42:12;;;;;;;;;;;;;;;21.68;43.02;100634.38;4479634;32;34872;-92
2022/10/05 13:44:42;;;;;;;;;;;;;;;21.46;41.98;100637.13;4463061;32;32328;-90
2022/10/05 13:47:15;;;;;;;;;;;;;;;21.38;42.19;100636.53;4474387;32;33787;-91
2022/10/05 13:49:47;;;;;;;;;;;;;;;21.27;43.16;100634.38;4474808;32;33718;-91
2022/10/05 13:52:32;;;;;;;;;;;;;;;21.23;43.91;100630.97;4477614;32;36257;-92
2022/10/05 13:55:07;;;;;;;;;;;;;;;21.16;43.20;100628.69;4475133;32;34580;-90
2022/10/05 13:57:43;;;;;;;;;;;;;;;21.25;43.06;100631.78;4465225;32;31553;-90
2022/10/05 14:00:14;;;;;;;;;;;;;;;21.15;42.79;100632.25;4477270;32;33981;-90
2022/10/05 14:03:02;;;;;;;;;;;;;;;21.18;43.04;100640.03;4470801;32;34140;-91
2022/10/05 14:05:32;;;;;;;;;;;;;;;21.24;42.96;100632.72;4460952;32;33780;-91
2022/10/05 14:08:12;;;;;;;;;;;;;;;21.08;44.28;100636.91;4457886;32;32454;-92
2022/10/05 14:10:41;;;;;;;;;;;;;;;21.08;43.22;100635.12;4460566;32;33513;-91
2022/10/05 14:13:19;;;;;;;;;;;;;;;20.87;43.37;100631.59;4459110;32;32439;-93
2022/10/05 14:15:55;;;;;;;;;;;;;;;21.12;43.49;100635.88;4450323;32;34086;-92
2022/10/05 14:18:25;;;;;;;;;;;;;;;21.00;44.51;100631.13;4448885;32;33702;-92
2022/10/05 14:21:04;;;;;;;;;;;;;;;21.05;44.22;100634.41;4449794;32;34372;-90
2022/10/05 14:23:40;;;;;;;;;;;;;;;20.97;44.12;100632.09;4450726;32;34128;-92
2022/10/05 14:26:16;;;;;;;;;;;;;;;21.03;44.83;100633.63;4454426;32;34642;-91
2022/10/05 14:28:56;;;;;;;;;;;;;;;21.06;45.45;100641.41;4445951;32;33857;-91
2022/10/05 14:31:29;;;;;;;;;;;;;;;20.92;45.71;100636.69;4449644;32;33997;-91
2022/10/05 14:34:26;;;;;;;;;;;;;;;21.07;45.84;100638.69;4457894;32;32593;-90
2022/10/05 14:37:03;;;;;;;;;;;;;;;20.99;46.19;100640.78;4446925;32;33170;-92
2022/10/05 14:39:36;;;;;;;;;;;;;;;20.99;46.56;100629.38;4451284;32;32824;-90
2022/10/05 14:42:13;;;;;;;;;;;;;;;21.03;46.31;100634.47;4453370;32;33636;-93
2022/10/05 14:44:43;;;;;;;;;;;;;;;20.92;47.03;100636.69;4450486;32;34401;-92
2022/10/05 14:47:19;;;;;;;;;;;;;;;20.65;47.28;100628.97;4448512;32;33434;-91
2022/10/05 14:50:12;;;;;;;;;;;;;;;20.79;46.70;100636.31;4451310;32;33215;-91
2022/10/05 14:52:43;;;;;;;;;;;;;;;20.79;47.21;100632.84;4452752;32;34397;-93
2022/10/05 14:55:34;;;;;;;;;;;;;;;20.59;47.53;100628.38;4462516;32;33934;-90
2022/10/05 14:58:20;;;;;;;;;;;;;;;20.60;48.69;100633.56;4457048;32;33518;-91
2022/10/05 15:00:49;;;;;;;;;;;;;;;20.51;48.41;100633.03;4464221;32;32999;-93
2022/10/05 15:03:25;;;;;;;;;;;;;;;20.52;48.75;100626.87;4452150;32;33281;-91
2022/10/05 15:05:54;;;;;;;;;;;;;;;20.39;48.97;100640.53;4454919;32;34299;-91
2022/10/05 15:08:48;;;;;;;;;;;;;;;20.45;48.88;100635.00;4452192;32;33659;-91
2022/10/05 15:11:17;;;;;;;;;;;;;;;20.37;49.51;100634.44;4453150;32;32799;-91
2022/10/05 15:13:48;;;;;;;;;;;;;;;20.17;49.80;100629.91;4451773;32;34105;-92
2022/10/05 15:16:18;;;;;;;;;;;;;;;20.13;50.29;100635.38;4448246;32;33900;-91
2022/10/05 15:18:49;;;;;;;;;;;;;;;20.14;50.35;100627.41;4447977;32;34201;-92
2022/10/05 15:21:25;;;;;;;;;;;;;;;19.95;50.95;100627.22;4458581;32;32175;-92
2022/10/05 15:24:03;;;;;;;;;;;;;;;19.93;50.89;100612.41;4462982;32;34132;-90
2022/10/05 15:26:43;;;;;;;;;;;;;;;19.74;50.92;100605.22;4455157;32;33944;-91
2022/10/05 15:29:17;;;;;;;;;;;;;;;19.73;51.24;100602.63;4455018;32;33814;-90
2022/10/05 15:32:00;;;;;;;;;;;;;;;19.66;51.47;100606.34;4460256;32;33695;-91
2022/10/05 15:34:32;;;;;;;;;;;;;;;19.53;51.86;100609.44;4459465;32;34337;-91
2022/10/05 15:37:07;;;;;;;;;;;;;;;19.26;52.62;100615.66;4458084;32;34515;-91
2022/10/05 15:39:43;;;;;;;;;;;;;;;19.29;52.41;100618.19;4447906;32;34950;-92
2022/10/05 15:42:13;;;;;;;;;;;;;;;19.25;52.97;100606.87;4456594;32;31932;-93
2022/10/05 15:44:52;;;;;;;;;;;;;;;19.21;53.12;100593.91;4447467;32;34220;-91
2022/10/05 15:47:22;;;;;;;;;;;;;;;19.05;53.56;100599.69;4447996;32;34388;-90
2022/10/05 15:49:56;;;;;;;;;;;;;;;19.05;53.74;100594.44;4451562;32;33690;-91
2022/10/05 15:52:34;;;;;;;;;;;;;;;18.91;53.98;100597.50;4445864;32;33131;-92
2022/10/05 15:55:10;;;;;;;;;;;;;;;18.65;54.35;100605.34;4449489;32;33842;-91
2022/10/05 15:57:39;;;;;;;;;;;;;;;18.81;53.27;100605.75;4448625;32;33629;-94
2022/10/05 16:00:09;;;;;;;;;;;;;;;18.69;53.47;100601.72;4444116;32;33683;-93
2022/10/05 16:02:40;;;;;;;;;;;;;;;18.62;53.93;100608.94;4448871;32;33169;-92
2022/10/05 16:08:49;;;;;;;;;;;;;;;18.62;54.24;100595.78;4461454;32;34195;-90
2022/10/05 16:11:02;;;;;;;;;;;;;;;18.37;54.90;100610.63;4461365;32;34266;-93
2022/10/05 16:13:36;;;;;;;;;;;;;;;18.27;55.29;100607.44;4463970;32;34197;-91
2022/10/05 16:16:14;;;;;;;;;;;;;;;18.29;55.34;100603.84;4464129;32;34413;-91
2022/10/05 16:18:53;;;;;;;;;;;;;;;18.26;55.63;100611.78;4466347;32;33778;-89
2022/10/05 16:25:13;;;;;;;;;;;;;;;18.07;56.13;100614.13;4464617;32;33526;-94
2022/10/05 16:42:45;;;;;;;;;;;;;;;17.63;57.32;100633.72;4422806;32;34197;-92
2022/10/05 16:53:34;;;;;;;;;;;;;;;17.28;57.89;100635.53;4416081;32;33371;-92
2022/10/05 17:00:50;;;;;;;;;;;;;;;17.18;58.26;100636.63;4704660;27;20010;-91
2022/10/05 17:11:25;;;;;;;;;;;;;;;16.92;58.83;100647.78;4284385;33;34399;-91
2022/10/05 17:38:30;;;;;;;;;;;;;;;16.38;59.97;100670.78;4203855;34;33270;-90
2022/10/05 17:48:34;;;;;;;;;;;;;;;16.18;60.87;100676.41;4274448;33;34273;-93
2022/10/05 17:58:55;;;;;;;;;;;;;;;16.07;61.03;100681.03;4361285;27;34885;-91
2022/10/05 18:16:39;;;;;;;;;;;;;;;15.77;61.63;100667.63;4388902;32;34150;-91
2022/10/05 18:19:43;;;;;;;;;;;;;;;15.71;61.88;100674.75;4369161;32;34295;-92
2022/10/05 18:23:13;;;;;;;;;;;;;;;15.75;61.72;100666.81;4395878;32;34423;-92
2022/10/05 18:26:31;;;;;;;;;;;;;;;15.75;61.84;100669.44;4376498;32;36588;-93
2022/10/05 18:35:42;;;;;;;;;;;;;;;15.61;62.29;100676.66;4429334;32;34288;-94
2022/10/05 18:39:06;;;;;;;;;;;;;;;15.61;61.33;100678.38;4423422;32;34634;-93
2022/10/05 18:50:06;;;;;;;;;;;;;;;15.29;61.46;100669.34;4328743;33;34414;-92
2022/10/05 19:59:47;;;;;;;;;;;;;;;15.86;57.94;100691.91;4268881;33;33296;-93
2022/10/05 20:13:04;;;;;;;;;;;;;;;15.76;58.54;100691.22;4252158;33;36263;-93
2022/10/05 20:22:29;;;;;;;;;;;;;;;15.87;58.45;100710.19;4289209;33;33319;-92
2022/10/05 20:31:55;;;;;;;;;;;;;;;15.66;59.19;100715.81;4276545;33;36217;-92
2022/10/05 20:39:14;;;;;;;;;;;;;;;15.75;58.91;100716.53;4347481;32;34285;-92
2022/10/05 20:48:34;;;;;;;;;;;;;;;15.56;59.42;100715.97;4305057;33;34084;-94
